Time;durP1;ratioP1;P1;durP2;ratioP2;P2;SDS_P1;SDS_P2;PMS_P1;PMS_P2;Temp;Humidity;BMP_temperature;BMP_pressure;BME280_temperature;BME280_humidity;BME280_pressure;Samples;Min_cycle;Max_cycle;Signal;HPM_P1;HPM_P2
2022/12/28 00:01:37;;;;;;;13.60;10.43;;;;;;;6.42;50.35;100519.16;10464477;28;20235;-38
2022/12/28 00:06:39;;;;;;;13.03;10.67;;;;;;;6.31;49.96;100529.91;10490137;28;20241;-38
2022/12/28 00:11:41;;;;;;;14.10;9.73;;;;;;;7.36;48.45;100474.06;10480579;28;20267;-38
2022/12/28 00:16:42;;;;;;;15.73;10.87;;;;;;;7.14;49.37;100488.59;10489181;28;20246;-38
2022/12/28 00:21:45;;;;;;;14.47;9.87;;;;;;;7.24;48.89;100469.06;10493492;28;20240;-38
2022/12/28 00:26:47;;;;;;;15.23;9.87;;;;;;;7.18;49.25;100460.69;10491529;28;20257;-38
2022/12/28 00:31:49;;;;;;;14.80;11.03;;;;;;;6.79;50.30;100491.88;10489855;28;20581;-38
2022/12/28 00:36:51;;;;;;;14.60;10.50;;;;;;;6.74;49.65;100497.59;10480946;28;20235;-38
2022/12/28 00:42:13;;;;;;;14.90;10.23;;;;;;;6.47;50.15;100498.31;10491424;28;20674;-38
2022/12/28 00:47:14;;;;;;;12.73;8.60;;;;;;;7.45;48.81;100419.09;10482882;28;20238;-38
2022/12/28 00:52:16;;;;;;;11.70;9.70;;;;;;;5.90;51.53;100537.09;10481510;28;20253;-38
2022/12/28 00:57:18;;;;;;;10.97;8.03;;;;;;;4.45;55.04;100544.03;10492995;28;20223;-37
2022/12/28 01:02:19;;;;;;;11.47;8.13;;;;;;;6.71;51.34;100398.63;10490188;28;20230;-38
2022/12/28 01:07:21;;;;;;;11.17;8.00;;;;;;;4.99;54.82;100468.78;10482356;28;20240;-38
2022/12/28 01:12:23;;;;;;;9.97;8.97;;;;;;;4.97;55.73;100401.75;10490066;28;20600;-37
2022/12/28 01:17:25;;;;;;;9.50;7.83;;;;;;;5.35;54.53;100365.72;10489024;28;20267;-37
2022/12/28 01:22:27;;;;;;;11.73;9.13;;;;;;;5.91;53.58;100379.38;10481610;28;21174;-38
2022/12/28 01:27:29;;;;;;;11.33;7.63;;;;;;;6.43;52.77;100319.63;10497791;28;20272;-38
2022/12/28 01:32:30;;;;;;;11.83;5.93;;;;;;;4.15;55.83;100471.34;10476325;28;20235;-38
2022/12/28 01:37:32;;;;;;;7.27;6.17;;;;;;;5.28;55.44;100335.38;10485557;28;20421;-38
2022/12/28 01:42:38;;;;;;;9.40;6.20;;;;;;;6.55;53.65;100258.28;10481596;28;20249;-38
2022/12/28 01:47:40;;;;;;;12.23;6.27;;;;;;;5.95;53.34;100335.63;10461888;28;20235;-38
2022/12/28 01:52:51;;;;;;;7.97;5.87;;;;;;;7.16;51.42;100238.25;10485459;28;20238;-38
2022/12/28 01:58:07;;;;;;;7.83;5.97;;;;;;;4.77;55.41;100372.47;10481766;28;20237;-38
2022/12/28 02:03:17;;;;;;;6.53;4.10;;;;;;;4.81;56.20;100322.69;10466362;28;20230;-37
2022/12/28 02:08:28;;;;;;;7.90;4.23;;;;;;;4.60;55.17;100340.47;10473153;28;20238;-38
2022/12/28 02:13:30;;;;;;;4.70;4.27;;;;;;;4.94;55.63;100323.28;10471442;28;20234;-38
2022/12/28 02:18:32;;;;;;;5.20;4.33;;;;;;;6.25;54.26;100194.59;10484328;28;20230;-38
2022/12/28 02:23:52;;;;;;;4.97;4.10;;;;;;;6.95;51.55;100249.16;10472025;28;20237;-38
2022/12/28 02:29:12;;;;;;;3.77;3.47;;;;;;;4.36;55.78;100374.22;10474420;28;20231;-38
2022/12/28 02:34:32;;;;;;;5.23;4.27;;;;;;;6.96;50.73;100278.28;10484334;28;20667;-38
2022/12/28 02:39:41;;;;;;;3.90;3.50;;;;;;;7.22;50.55;100258.09;10478968;28;20231;-38
2022/12/28 02:50:05;;;;;;;4.43;4.00;;;;;;;7.99;49.20;100213.97;10474363;28;20325;-38
2022/12/28 03:00:59;;;;;;;4.43;3.40;;;;;;;8.15;48.17;100255.91;10471583;28;20350;-38
2022/12/28 03:12:04;;;;;;;3.33;2.90;;;;;;;7.32;50.43;100290.78;10480068;28;20234;-38
2022/12/28 03:33:13;;;;;;;3.17;2.67;;;;;;;7.86;48.44;100256.19;10483157;28;20255;-38
2022/12/28 03:38:26;;;;;;;3.97;2.83;;;;;;;7.72;48.85;100277.03;10477483;28;20231;-39
2022/12/28 03:43:40;;;;;;;3.37;3.07;;;;;;;8.56;47.40;100226.78;10480016;28;20287;-38
2022/12/28 03:48:43;;;;;;;3.20;2.90;;;;;;;8.10;48.10;100253.69;10487543;28;20284;-38
2022/12/28 03:53:46;;;;;;;3.70;2.60;;;;;;;8.10;48.03;100242.22;10483887;28;20317;-38
2022/12/28 03:58:48;;;;;;;3.10;2.90;;;;;;;8.10;48.03;100261.69;10482630;28;20245;-38
2022/12/28 04:03:50;;;;;;;5.23;2.80;;;;;;;8.48;47.27;100230.22;10481195;28;20231;-38
2022/12/28 04:08:52;;;;;;;3.00;2.70;;;;;;;7.82;48.00;100273.47;10485306;28;20237;-38
2022/12/28 04:13:53;;;;;;;2.77;2.57;;;;;;;8.05;47.81;100239.16;10485530;28;20285;-38
2022/12/28 04:18:55;;;;;;;4.47;3.33;;;;;;;8.59;47.53;100205.13;10497378;28;20230;-38
2022/12/28 04:23:57;;;;;;;2.80;2.60;;;;;;;7.67;48.67;100283.81;10478197;28;20238;-38
2022/12/28 04:29:00;;;;;;;3.20;2.90;;;;;;;7.95;48.31;100254.41;10484981;28;20336;-38
2022/12/28 04:34:02;;;;;;;4.73;2.93;;;;;;;7.70;48.15;100267.53;10482268;28;20231;-38
2022/12/28 04:39:05;;;;;;;3.07;2.80;;;;;;;8.31;47.82;100191.16;10485834;28;20235;-38
2022/12/28 04:44:06;;;;;;;3.67;2.80;;;;;;;8.05;47.28;100236.50;10485060;28;20257;-38
2022/12/28 04:49:08;;;;;;;3.50;2.77;;;;;;;7.71;48.34;100291.34;10489220;28;20310;-38
2022/12/28 04:54:13;;;;;;;2.73;2.53;;;;;;;7.62;48.73;100272.78;10485695;28;20231;-38
2022/12/28 04:59:14;;;;;;;2.80;2.60;;;;;;;7.96;48.06;100245.44;10472996;28;20231;-38
2022/12/28 05:04:16;;;;;;;2.80;2.60;;;;;;;7.14;49.12;100296.13;10482368;28;20246;-38
2022/12/28 05:09:18;;;;;;;3.00;2.70;;;;;;;7.94;48.02;100221.59;10478739;28;20235;-38
2022/12/28 05:14:20;;;;;;;4.17;2.70;;;;;;;8.51;47.38;100194.41;10487301;28;20240;-38
2022/12/28 05:19:21;;;;;;;2.77;2.57;;;;;;;7.52;49.22;100265.69;10482161;28;20241;-38
2022/12/28 05:24:23;;;;;;;3.03;2.60;;;;;;;8.49;47.12;100193.75;10472610;28;20254;-38
2022/12/28 05:29:25;;;;;;;2.87;2.50;;;;;;;8.55;47.34;100177.09;10487865;28;20224;-38
2022/12/28 05:34:26;;;;;;;4.03;2.80;;;;;;;7.54;48.90;100214.94;10479965;28;21327;-38
2022/12/28 05:39:28;;;;;;;2.40;2.30;;;;;;;8.18;48.27;100164.09;10483527;28;20223;-38
2022/12/28 05:44:30;;;;;;;4.90;2.60;;;;;;;8.19;48.42;100163.94;10484137;28;20231;-38
2022/12/28 05:49:31;;;;;;;5.97;2.87;;;;;;;7.23;49.19;100215.34;10491109;28;20250;-38
2022/12/28 05:54:33;;;;;;;3.03;2.50;;;;;;;8.26;47.90;100143.63;10485585;28;20308;-38
2022/12/28 05:59:35;;;;;;;2.87;2.67;;;;;;;6.18;50.63;100270.56;10479813;28;20747;-38
2022/12/28 06:04:37;;;;;;;2.53;2.40;;;;;;;6.75;49.33;100224.44;10483496;28;20600;-38
2022/12/28 06:09:38;;;;;;;3.67;2.40;;;;;;;7.21;49.57;100219.13;10484021;28;20236;-38
2022/12/28 06:14:40;;;;;;;3.47;2.50;;;;;;;7.36;49.55;100188.34;10471829;28;20234;-38
2022/12/28 06:19:41;;;;;;;4.33;2.70;;;;;;;7.52;49.36;100140.53;10486345;28;20243;-38
2022/12/28 06:24:43;;;;;;;2.97;2.63;;;;;;;7.99;47.67;100155.34;10478593;28;20278;-38
2022/12/28 06:29:45;;;;;;;3.17;2.33;;;;;;;8.35;46.90;100141.84;10484955;28;20740;-38
2022/12/28 06:34:47;;;;;;;3.07;2.87;;;;;;;8.44;46.72;100145.41;10481132;28;20637;-38
2022/12/28 06:39:48;;;;;;;4.00;2.27;;;;;;;8.54;47.20;100172.75;10485118;28;20290;-39
2022/12/28 06:44:50;;;;;;;3.67;2.50;;;;;;;8.11;47.69;100183.38;10480577;28;20238;-38
2022/12/28 06:49:52;;;;;;;2.80;2.57;;;;;;;8.38;47.35;100132.69;10491576;28;20633;-38
2022/12/28 06:54:53;;;;;;;3.03;2.73;;;;;;;7.98;48.33;100190.97;10487053;28;20599;-38
2022/12/28 06:59:55;;;;;;;3.63;2.60;;;;;;;8.27;47.41;100157.81;10476128;28;20231;-38
2022/12/28 07:04:57;;;;;;;3.23;2.93;;;;;;;9.26;46.14;100115.34;10482423;28;20242;-38
2022/12/28 07:09:58;;;;;;;3.87;2.93;;;;;;;8.83;46.76;100132.31;10476927;28;20705;-38
2022/12/28 07:15:00;;;;;;;3.30;2.40;;;;;;;8.95;46.20;100113.34;10480215;28;20792;-38
2022/12/28 07:20:02;;;;;;;3.60;2.70;;;;;;;8.74;46.49;100133.31;10485431;28;20470;-38
2022/12/28 07:25:04;;;;;;;3.37;2.43;;;;;;;9.27;46.18;100117.03;10482368;28;20234;-39
2022/12/28 07:30:07;;;;;;;2.60;2.23;;;;;;;8.71;46.79;100136.28;10492124;28;20241;-38
2022/12/28 07:35:08;;;;;;;2.37;2.17;;;;;;;8.66;47.03;100126.09;10493205;28;20237;-39
2022/12/28 07:40:10;;;;;;;2.40;2.23;;;;;;;7.96;46.92;100142.31;10482080;28;20239;-39
2022/12/28 07:45:12;;;;;;;4.13;2.40;;;;;;;9.25;46.16;100081.63;10499868;28;20229;-39
2022/12/28 07:50:14;;;;;;;2.63;2.43;;;;;;;8.67;46.55;100119.78;10478643;28;20231;-39
2022/12/28 07:55:15;;;;;;;2.60;2.20;;;;;;;8.83;47.37;100083.44;10493709;28;20227;-39
2022/12/28 08:00:17;;;;;;;2.67;2.13;;;;;;;7.54;48.65;100154.56;10479784;28;20265;-40
2022/12/28 08:05:19;;;;;;;2.40;2.00;;;;;;;7.64;49.16;100148.28;10504351;28;20234;-40
2022/12/28 08:10:21;;;;;;;3.07;2.77;;;;;;;9.42;46.17;100043.22;10489478;28;20257;-38
2022/12/28 08:15:22;;;;;;;4.60;2.20;;;;;;;8.39;47.43;100129.88;10503106;28;20218;-40
2022/12/28 08:20:24;;;;;;;3.40;2.50;;;;;;;9.43;46.18;100062.75;10484792;28;20228;-38
2022/12/28 08:25:26;;;;;;;2.33;2.20;;;;;;;8.24;47.71;100136.81;10481643;28;20319;-40
2022/12/28 08:30:28;;;;;;;2.97;2.50;;;;;;;9.30;46.35;100060.56;10491077;28;20736;-39
2022/12/28 08:35:29;;;;;;;2.53;2.20;;;;;;;9.20;46.36;100056.28;10486598;28;20254;-39
2022/12/28 08:40:31;;;;;;;4.47;2.30;;;;;;;8.04;47.84;100130.88;10487500;28;20229;-38
2022/12/28 08:45:33;;;;;;;3.90;3.13;;;;;;;8.78;46.85;100081.25;10491196;28;20315;-39
2022/12/28 08:50:35;;;;;;;2.40;2.20;;;;;;;8.47;47.56;100092.56;10489967;28;20250;-38
2022/12/28 08:55:36;;;;;;;3.50;2.53;;;;;;;8.35;48.46;100069.84;10491229;28;20227;-38
2022/12/28 09:00:38;;;;;;;2.40;2.20;;;;;;;8.61;46.82;100068.91;10477424;28;20242;-40
2022/12/28 09:05:40;;;;;;;5.27;3.00;;;;;;;8.64;47.28;100057.88;10489732;28;20239;-40
2022/12/28 09:10:41;;;;;;;4.30;2.50;;;;;;;9.40;46.38;100019.34;10493154;28;20787;-38
2022/12/28 09:15:43;;;;;;;4.70;2.70;;;;;;;9.66;46.17;100028.13;10483376;28;20240;-39
2022/12/28 09:20:45;;;;;;;2.80;2.50;;;;;;;9.46;46.20;100047.19;10479601;28;20607;-39
2022/12/28 09:25:48;;;;;;;3.00;2.67;;;;;;;8.81;46.79;100096.13;10485029;28;20227;-39
2022/12/28 09:30:50;;;;;;;5.03;2.67;;;;;;;9.03;45.52;100094.66;10495364;28;20669;-39
2022/12/28 09:35:57;;;;;;;3.47;2.27;;;;;;;8.53;47.07;100122.25;10488890;28;20589;-38
2022/12/28 09:40:59;;;;;;;4.63;2.53;;;;;;;9.47;46.43;100080.09;10489709;28;20226;-39
2022/12/28 09:46:00;;;;;;;2.97;2.30;;;;;;;9.92;45.35;100049.25;10477346;28;20600;-38
2022/12/28 09:51:03;;;;;;;3.60;2.47;;;;;;;7.49;47.76;100070.78;10496264;28;20373;-38
2022/12/28 09:56:27;;;;;;;4.30;3.70;;;;;;;9.43;46.29;100095.63;10488891;28;20525;-36
2022/12/28 10:01:29;;;;;;;2.73;2.20;;;;;;;9.90;45.56;100084.16;10476872;28;20655;-36
2022/12/28 10:06:35;;;;;;;5.00;2.60;;;;;;;10.43;44.28;100046.16;10489787;28;20227;-37
2022/12/28 10:11:42;;;;;;;3.77;2.30;;;;;;;10.80;44.97;100024.00;10485688;28;20243;-37
2022/12/28 10:16:44;;;;;;;2.60;2.40;;;;;;;10.62;44.86;100031.47;10484018;28;20248;-37
2022/12/28 10:22:01;;;;;;;3.70;2.50;;;;;;;10.86;44.28;100022.44;10488089;28;20778;-37
2022/12/28 10:27:05;;;;;;;4.23;2.70;;;;;;;10.44;45.57;100039.78;10480119;28;20314;-40
2022/12/28 10:32:08;;;;;;;2.90;2.60;;;;;;;10.20;44.55;100046.94;10472847;28;20587;-38
2022/12/28 10:37:15;;;;;;;3.20;2.93;;;;;;;9.47;45.98;100062.25;10480116;28;20826;-37
2022/12/28 10:42:28;;;;;;;6.57;4.63;;;;;;;9.99;45.20;100036.03;10482126;28;20450;-40
2022/12/28 10:47:35;;;;;;;3.90;2.50;;;;;;;10.06;46.12;100019.13;10483777;28;20232;-40
2022/12/28 10:52:36;;;;;;;2.80;2.40;;;;;;;9.33;46.77;100036.22;10473851;28;20337;-36
2022/12/28 10:57:38;;;;;;;3.07;2.47;;;;;;;10.67;45.08;99957.66;10484491;28;20734;-37
2022/12/28 11:06:26;;;;;;;3.57;2.27;;;;;;;6.90;52.29;99901.09;10536862;27;20313;-68
2022/12/28 11:11:29;;;;;;;2.03;1.93;;;;;;;5.40;54.13;99993.72;10453793;28;20231;-68
2022/12/28 11:16:35;;;;;;;3.40;2.37;;;;;;;6.97;52.31;99843.59;10452944;28;20723;-68
2022/12/28 11:21:38;;;;;;;2.10;2.00;;;;;;;6.60;52.61;99908.50;10473308;28;20618;-68
2022/12/28 11:26:43;;;;;;;3.80;2.30;;;;;;;7.50;51.16;99854.09;10505990;28;20614;-68
2022/12/28 11:32:07;;;;;;;3.33;2.43;;;;;;;7.72;51.60;99821.50;10505153;28;20237;-68
2022/12/28 11:37:13;;;;;;;2.57;2.37;;;;;;;7.26;51.66;99874.31;10507156;28;20591;-68
2022/12/28 11:42:38;;;;;;;2.87;2.20;;;;;;;7.33;51.58;99851.38;10507935;28;20242;-68
2022/12/28 11:47:42;;;;;;;3.50;2.20;;;;;;;8.13;50.99;99758.59;10500770;28;20701;-68
2022/12/28 11:52:49;;;;;;;1.90;1.80;;;;;;;6.95;51.68;99852.72;10499942;28;20235;-68
2022/12/28 11:57:53;;;;;;;2.13;1.80;;;;;;;7.19;51.65;99844.03;10512075;28;20234;-68
2022/12/28 12:03:00;;;;;;;2.00;1.90;;;;;;;7.54;51.15;99786.19;10500807;28;20226;-68
2022/12/28 12:08:21;;;;;;;2.17;1.93;;;;;;;7.76;50.68;99802.53;10508194;28;20234;-68
2022/12/28 12:13:26;;;;;;;2.23;2.03;;;;;;;7.48;50.71;99792.19;10485879;28;20758;-68
2022/12/28 12:18:31;;;;;;;2.77;2.10;;;;;;;7.48;51.08;99790.34;10479902;28;20235;-68
2022/12/28 12:23:39;;;;;;;3.20;2.27;;;;;;;8.29;50.47;99700.72;10474198;28;20231;-68
2022/12/28 12:28:47;;;;;;;2.90;2.23;;;;;;;8.88;49.53;99672.84;10475441;28;20253;-68
2022/12/28 12:33:51;;;;;;;3.80;2.30;;;;;;;8.14;50.24;99749.59;10470266;28;20234;-68
2022/12/28 12:39:03;;;;;;;2.60;2.40;;;;;;;8.37;49.76;99726.56;10473261;28;20720;-68
2022/12/28 12:44:17;;;;;;;2.70;2.33;;;;;;;8.08;50.15;99748.44;10472867;28;20719;-68
2022/12/28 12:49:25;;;;;;;3.87;2.40;;;;;;;9.07;49.32;99655.53;10472482;28;20241;-68
2022/12/28 12:54:55;;;;;;;2.57;2.37;;;;;;;8.18;49.55;99742.91;10427915;28;20883;-68
2022/12/28 13:00:07;;;;;;;3.27;2.40;;;;;;;8.95;48.44;99696.97;10431151;28;20243;-68
2022/12/28 13:05:17;;;;;;;5.50;2.30;;;;;;;8.95;47.99;99723.66;10430333;28;20713;-68
2022/12/28 13:10:29;;;;;;;4.03;2.50;;;;;;;9.89;47.27;99678.91;10425762;28;20228;-68
2022/12/28 13:15:31;;;;;;;2.10;1.93;;;;;;;8.81;48.98;99744.72;10431472;28;20361;-68
2022/12/28 13:20:33;;;;;;;2.63;2.03;;;;;;;10.02;47.11;99656.88;10463656;28;20253;-68
2022/12/28 13:25:35;;;;;;;2.20;2.00;;;;;;;9.43;47.65;99702.97;10474085;28;20235;-68
2022/12/28 13:30:37;;;;;;;2.57;2.23;;;;;;;9.14;48.11;99717.88;10471710;28;20243;-68
2022/12/28 13:35:39;;;;;;;4.53;2.30;;;;;;;8.29;49.73;99710.56;10474973;28;20231;-68
2022/12/28 13:40:51;;;;;;;3.13;1.93;;;;;;;9.72;47.68;99648.81;10480911;28;20243;-68
2022/12/28 13:45:59;;;;;;;2.00;1.90;;;;;;;9.26;48.36;99691.59;10476680;28;20239;-68
2022/12/28 13:51:01;;;;;;;4.60;3.03;;;;;;;10.11;47.09;99628.22;10476483;28;20227;-68
2022/12/28 13:56:06;;;;;;;3.60;2.00;;;;;;;9.78;48.08;99629.34;10475024;28;20592;-68
2022/12/28 14:01:16;;;;;;;2.87;2.00;;;;;;;9.04;48.61;99706.59;10465004;28;20231;-68
2022/12/28 14:06:19;;;;;;;1.90;1.80;;;;;;;8.55;49.62;99717.47;10473282;28;20272;-68
2022/12/28 14:11:21;;;;;;;2.53;2.00;;;;;;;9.34;48.01;99675.50;10474282;28;20250;-68
2022/12/28 14:16:24;;;;;;;4.23;2.17;;;;;;;9.97;47.22;99616.50;10472786;28;20241;-68
2022/12/28 14:21:43;;;;;;;1.90;1.80;;;;;;;9.60;48.01;99668.94;10473356;28;20235;-68
2022/12/28 14:26:50;;;;;;;2.00;1.83;;;;;;;9.06;48.32;99693.06;10472143;28;20234;-68
2022/12/28 14:32:04;;;;;;;2.10;2.00;;;;;;;9.74;47.79;99635.28;10476899;28;20238;-68
2022/12/28 14:37:22;;;;;;;2.27;2.17;;;;;;;9.99;47.48;99587.75;10473052;28;20322;-68
2022/12/28 14:42:26;;;;;;;5.97;3.20;;;;;;;9.69;48.17;99587.72;10472964;28;20232;-68
2022/12/28 14:47:35;;;;;;;2.27;2.07;;;;;;;8.26;49.34;99650.41;10469422;28;20231;-68
2022/12/28 14:52:42;;;;;;;2.30;2.10;;;;;;;9.11;48.63;99639.97;10472652;28;20238;-68
2022/12/28 14:57:44;;;;;;;2.70;2.50;;;;;;;10.16;47.79;99556.31;10475683;28;20236;-67
2022/12/28 15:02:47;;;;;;;5.27;2.10;;;;;;;8.68;49.30;99664.41;10457462;28;20750;-67
2022/12/28 15:07:48;;;;;;;5.20;2.13;;;;;;;9.17;49.21;99626.75;10461601;28;20647;-67
2022/12/28 15:12:50;;;;;;;2.53;2.10;;;;;;;10.26;47.42;99546.13;10466155;28;20220;-67
2022/12/28 15:17:52;;;;;;;2.47;2.13;;;;;;;10.17;46.87;99547.25;10461259;28;20296;-67
2022/12/28 15:22:54;;;;;;;2.67;2.13;;;;;;;9.34;48.85;99622.09;10471851;28;20618;-67
2022/12/28 15:27:55;;;;;;;2.43;2.23;;;;;;;10.52;46.72;99534.06;10474225;28;20273;-67
2022/12/28 15:32:58;;;;;;;2.60;2.40;;;;;;;10.01;47.33;99526.91;10470494;28;20322;-67
2022/12/28 15:37:59;;;;;;;3.37;2.37;;;;;;;10.02;46.82;99546.44;10475552;28;20232;-68
2022/12/28 15:43:01;;;;;;;5.73;3.97;;;;;;;10.14;47.44;99551.13;10473286;28;20735;-68
2022/12/28 15:48:03;;;;;;;2.00;1.90;;;;;;;8.96;48.30;99637.25;10471789;28;20241;-68
2022/12/28 15:53:05;;;;;;;2.90;2.30;;;;;;;9.77;47.21;99568.09;10476763;28;20227;-68
2022/12/28 15:58:07;;;;;;;3.67;2.40;;;;;;;9.93;47.26;99538.53;10441457;28;20242;-68
2022/12/28 16:03:08;;;;;;;2.70;2.50;;;;;;;10.02;46.85;99539.25;10431102;28;20247;-67
2022/12/28 16:08:10;;;;;;;2.50;2.30;;;;;;;11.10;45.63;99519.78;10469403;28;20227;-68
2022/12/28 16:13:12;;;;;;;2.60;2.40;;;;;;;9.68;46.81;99595.91;10449469;28;20221;-67
2022/12/28 16:18:13;;;;;;;2.90;2.30;;;;;;;10.51;45.47;99532.38;10432029;28;20245;-68
2022/12/28 16:23:15;;;;;;;2.07;1.97;;;;;;;8.95;46.94;99601.72;10436047;28;20228;-68
2022/12/28 16:28:17;;;;;;;3.93;3.13;;;;;;;10.04;46.40;99606.75;10466214;28;20231;-70
2022/12/28 16:33:19;;;;;;;6.37;2.83;;;;;;;9.92;46.55;99606.38;10468455;28;20240;-69
2022/12/28 16:38:23;;;;;;;3.27;2.73;;;;;;;10.17;45.70;99584.69;10445503;28;20228;-69
2022/12/28 16:43:24;;;;;;;2.37;2.17;;;;;;;9.43;45.99;99609.50;10437271;28;20234;-69
2022/12/28 16:48:26;;;;;;;3.17;2.67;;;;;;;9.92;46.03;99593.03;10436586;28;20233;-69
2022/12/28 16:53:29;;;;;;;4.57;2.53;;;;;;;10.49;44.96;99551.31;10466940;28;20226;-68
2022/12/28 16:58:31;;;;;;;3.13;2.27;;;;;;;10.47;45.21;99539.16;10469171;28;20232;-67
2022/12/28 17:03:33;;;;;;;2.40;2.23;;;;;;;10.45;44.55;99558.06;10474737;28;20228;-68
2022/12/28 17:08:35;;;;;;;2.70;2.20;;;;;;;10.24;44.97;99553.53;10440785;28;20605;-68
2022/12/28 17:13:37;;;;;;;2.40;2.20;;;;;;;10.39;43.90;99540.09;10422326;28;20221;-69
2022/12/28 17:18:39;;;;;;;2.50;2.30;;;;;;;10.54;44.61;99541.91;10431686;28;20232;-69
2022/12/28 17:23:41;;;;;;;3.27;2.50;;;;;;;11.10;43.78;99487.66;10426967;28;20236;-70
2022/12/28 17:28:43;;;;;;;2.23;2.00;;;;;;;10.09;44.96;99566.91;10425887;28;20233;-69
2022/12/28 17:33:50;;;;;;;3.30;2.90;;;;;;;9.61;44.98;99579.78;10424923;28;20609;-69
2022/12/28 17:38:52;;;;;;;2.50;2.30;;;;;;;10.35;44.56;99554.06;10423077;28;20228;-69
2022/12/28 17:43:56;;;;;;;2.33;2.13;;;;;;;9.79;45.82;99560.72;10420203;28;20231;-69
2022/12/28 17:48:59;;;;;;;2.50;2.30;;;;;;;10.01;45.10;99537.59;10431604;28;20243;-70
2022/12/28 17:54:01;;;;;;;3.17;2.93;;;;;;;9.37;45.94;99546.16;10426818;28;20338;-70
2022/12/28 17:59:03;;;;;;;3.83;2.40;;;;;;;9.49;46.20;99523.31;10480812;28;20750;-70
2022/12/28 18:04:05;;;;;;;3.10;2.80;;;;;;;10.17;45.29;99451.00;10475725;28;20231;-70
2022/12/28 18:09:06;;;;;;;2.87;2.57;;;;;;;10.18;44.78;99459.84;10437382;28;20233;-70
2022/12/28 18:14:11;;;;;;;2.30;2.03;;;;;;;9.06;46.07;99487.53;10474536;28;20232;-70
2022/12/28 18:19:13;;;;;;;2.03;1.93;;;;;;;10.43;45.53;99401.47;10438243;28;20645;-70
2022/12/28 18:24:16;;;;;;;2.87;2.30;;;;;;;9.35;46.55;99484.09;10434468;28;20258;-70
2022/12/28 18:29:18;;;;;;;3.00;2.80;;;;;;;10.14;45.58;99393.38;10429631;28;20236;-70
2022/12/28 18:34:20;;;;;;;2.90;2.33;;;;;;;9.91;46.15;99428.31;10425106;28;20236;-70
2022/12/28 18:39:21;;;;;;;2.00;1.90;;;;;;;9.48;46.26;99446.84;10432964;28;20659;-70
2022/12/28 18:44:23;;;;;;;4.20;2.70;;;;;;;10.60;45.47;99325.25;10468977;28;20235;-69
2022/12/28 18:49:28;;;;;;;2.53;2.00;;;;;;;10.36;45.32;99384.50;10468779;28;20724;-70
2022/12/28 18:54:29;;;;;;;2.33;1.90;;;;;;;10.14;45.81;99388.03;10430961;28;20258;-70
2022/12/28 18:59:31;;;;;;;1.90;1.80;;;;;;;10.22;45.80;99375.56;10427547;28;20234;-70
2022/12/28 19:04:32;;;;;;;2.30;2.20;;;;;;;10.20;46.17;99401.66;10424805;28;20705;-70
2022/12/28 19:09:34;;;;;;;3.53;2.30;;;;;;;10.38;45.17;99369.09;10423324;28;20232;-69
2022/12/28 19:14:36;;;;;;;2.53;2.27;;;;;;;10.06;45.84;99409.56;10433455;28;20232;-70
2022/12/28 19:19:38;;;;;;;2.10;2.00;;;;;;;10.60;45.58;99346.66;10427956;28;20239;-70
2022/12/28 19:24:39;;;;;;;2.73;2.53;;;;;;;10.54;45.30;99368.81;10430441;28;20243;-70
2022/12/28 19:29:41;;;;;;;2.40;2.20;;;;;;;10.67;45.28;99360.06;10429742;28;20232;-69
2022/12/28 19:34:43;;;;;;;2.40;2.20;;;;;;;10.70;45.26;99362.38;10435860;28;20263;-69
2022/12/28 19:39:44;;;;;;;2.50;2.30;;;;;;;10.02;46.10;99384.19;10442838;28;20239;-72
2022/12/28 19:44:46;;;;;;;1.90;1.80;;;;;;;9.44;46.86;99380.66;10429929;28;20236;-69
2022/12/28 19:49:48;;;;;;;2.67;2.20;;;;;;;9.55;46.46;99372.16;10474078;28;20251;-70
2022/12/28 19:54:49;;;;;;;2.37;2.20;;;;;;;10.32;45.73;99336.75;10432040;28;20242;-70
2022/12/28 19:59:51;;;;;;;2.20;2.00;;;;;;;10.22;46.32;99344.28;10426006;28;20232;-72
2022/12/28 20:04:53;;;;;;;2.27;2.10;;;;;;;10.40;46.59;99308.22;10429207;28;20247;-74
2022/12/28 20:09:55;;;;;;;4.50;2.43;;;;;;;10.57;45.94;99255.25;10436145;28;20242;-70
2022/12/28 20:14:56;;;;;;;1.90;1.80;;;;;;;9.26;47.70;99315.13;10481804;28;20919;-69
2022/12/28 20:19:58;;;;;;;2.37;2.17;;;;;;;9.75;47.08;99314.44;10482929;28;20247;-71
2022/12/28 20:24:59;;;;;;;1.70;1.60;;;;;;;9.80;47.64;99288.97;10470787;28;20236;-69
2022/12/28 20:30:01;;;;;;;3.50;2.10;;;;;;;9.77;47.23;99315.06;10438533;28;20238;-70
2022/12/28 20:35:03;;;;;;;2.77;2.57;;;;;;;11.05;46.01;99217.78;10434266;28;20228;-70
2022/12/28 20:40:06;;;;;;;2.63;2.40;;;;;;;10.86;46.44;99238.13;10440009;28;20232;-69
2022/12/28 20:45:08;;;;;;;2.33;2.13;;;;;;;10.33;46.64;99287.59;10439300;28;20259;-71
2022/12/28 20:50:09;;;;;;;3.87;2.67;;;;;;;11.31;45.55;99190.25;10436658;28;20302;-72
2022/12/28 20:55:11;;;;;;;2.50;2.30;;;;;;;10.68;46.12;99270.72;10436460;28;20232;-69
2022/12/28 21:00:13;;;;;;;3.03;1.83;;;;;;;10.78;46.01;99262.38;10426263;28;20236;-72
2022/12/28 21:05:15;;;;;;;2.00;1.90;;;;;;;10.18;46.79;99278.84;10438558;28;20236;-70
2022/12/28 21:10:16;;;;;;;5.03;2.07;;;;;;;11.34;44.70;99200.59;10429500;28;20246;-71
2022/12/28 21:15:18;;;;;;;2.83;2.30;;;;;;;11.40;45.20;99209.66;10437077;28;20242;-68
2022/12/28 21:20:20;;;;;;;2.67;2.47;;;;;;;11.30;45.36;99215.38;10432330;28;20235;-68
2022/12/28 21:25:21;;;;;;;3.53;2.43;;;;;;;11.87;44.89;99182.91;10434428;28;20235;-71
2022/12/28 21:30:23;;;;;;;1.83;1.73;;;;;;;10.17;46.60;99237.09;10433991;28;20244;-70
2022/12/28 21:35:25;;;;;;;3.47;2.63;;;;;;;13.20;43.43;99163.66;10430765;28;20228;-71
2022/12/28 21:40:34;;;;;;;2.70;2.50;;;;;;;12.63;44.05;99143.94;10429689;28;20240;-70
2022/12/28 21:45:36;;;;;;;2.73;2.53;;;;;;;12.44;43.86;99149.13;10434001;28;20330;-66
2022/12/28 21:50:37;;;;;;;3.17;2.13;;;;;;;12.14;43.91;99179.13;10445266;28;20235;-70
2022/12/28 21:55:42;;;;;;;3.37;2.63;;;;;;;12.54;43.40;99154.09;10474559;28;20275;-70
2022/12/28 22:06:07;;;;;;;2.53;2.33;;;;;;;12.05;44.37;99174.22;10468962;28;20250;-70
2022/12/28 22:16:32;;;;;;;2.33;2.13;;;;;;;12.16;44.41;99157.47;10473441;28;20238;-69
2022/12/28 22:21:35;;;;;;;3.00;2.73;;;;;;;12.78;43.91;99146.34;10468973;28;20238;-70
2022/12/28 22:26:36;;;;;;;4.23;2.60;;;;;;;12.97;43.15;99123.91;10469619;28;20679;-68
2022/12/28 22:31:39;;;;;;;2.73;2.53;;;;;;;12.41;44.17;99156.78;10468982;28;20246;-67
2022/12/28 22:36:40;;;;;;;3.73;2.33;;;;;;;11.99;44.78;99175.88;10458858;28;20705;-68
2022/12/28 22:41:42;;;;;;;3.33;2.40;;;;;;;12.91;44.20;99114.88;10427983;28;20227;-67
2022/12/28 22:46:44;;;;;;;4.33;2.60;;;;;;;11.19;45.90;99173.97;10427137;28;20319;-67
2022/12/28 22:51:46;;;;;;;4.13;2.43;;;;;;;13.85;43.27;99106.06;10425318;28;20228;-68
2022/12/28 22:56:47;;;;;;;2.83;2.60;;;;;;;13.07;43.99;99110.81;10431605;28;20231;-68
2022/12/28 23:01:51;;;;;;;2.70;2.13;;;;;;;12.91;44.33;99100.63;10449679;28;20587;-67
2022/12/28 23:06:53;;;;;;;4.03;2.77;;;;;;;11.63;45.32;99161.06;10470613;28;20245;-67
2022/12/28 23:12:02;;;;;;;2.87;2.57;;;;;;;12.16;44.84;99136.00;10473621;28;20963;-67
2022/12/28 23:17:06;;;;;;;3.70;2.77;;;;;;;11.70;45.45;99134.25;10474825;28;20237;-67
2022/12/28 23:27:40;;;;;;;3.50;2.60;;;;;;;12.86;44.10;99052.94;10472177;28;20422;-68
2022/12/28 23:32:46;;;;;;;3.97;2.47;;;;;;;12.66;44.56;99065.66;10470459;28;20236;-68
2022/12/28 23:37:48;;;;;;;2.97;2.20;;;;;;;13.01;44.18;99041.03;10470603;28;20716;-68
2022/12/28 23:42:52;;;;;;;2.87;2.37;;;;;;;12.95;44.64;99066.91;10476006;28;20724;-68
2022/12/28 23:47:54;;;;;;;4.20;2.33;;;;;;;12.53;45.26;99058.50;10467558;28;20782;-68
2022/12/28 23:52:56;;;;;;;3.83;2.30;;;;;;;13.84;43.23;99034.50;10441755;28;20255;-68
2022/12/28 23:57:57;;;;;;;1.80;1.70;;;;;;;11.05;46.21;99058.00;10426510;28;20315;-68
